Time;durP1;ratioP1;P1;durP2;ratioP2;P2;SDS_P1;SDS_P2;PMS_P1;PMS_P2;Temp;Humidity;BMP_temperature;BMP_pressure;BME280_temperature;BME280_humidity;BME280_pressure;Samples;Min_cycle;Max_cycle;Signal;HPM_P1;HPM_P2
2022/10/18 00:01:03;;;;;;;80.15;46.67;;;;;;;;;;5034892;28;20408;-79
2022/10/18 00:03:29;;;;;;;76.03;47.45;;;;;;;;;;5034427;28;20143;-80
2022/10/18 00:05:55;;;;;;;74.47;47.10;;;;;;;;;;5034010;28;20025;-80
2022/10/18 00:08:21;;;;;;;75.22;47.75;;;;;;;;;;5033842;28;20027;-78
2022/10/18 00:10:50;;;;;;;81.55;49.25;;;;;;;;;;5031957;28;20041;-78
2022/10/18 00:13:16;;;;;;;77.03;47.65;;;;;;;;;;5032530;28;20029;-79
2022/10/18 00:15:54;;;;;;;78.03;47.00;;;;;;;;;;5015264;28;20129;-79
2022/10/18 00:18:20;;;;;;;90.47;51.05;;;;;;;;;;5032985;28;20026;-79
2022/10/18 00:20:55;;;;;;;87.05;48.65;;;;;;;;;;5038328;28;20029;-79
2022/10/18 00:23:21;;;;;;;78.95;46.45;;;;;;;;;;5022569;28;20510;-79
2022/10/18 00:25:47;;;;;;;81.30;47.25;;;;;;;;;;5020152;28;20021;-79
2022/10/18 00:28:13;;;;;;;85.43;48.72;;;;;;;;;;5038547;28;20369;-78
2022/10/18 00:30:41;;;;;;;76.57;45.45;;;;;;;;;;5033135;28;20442;-79
2022/10/18 00:33:07;;;;;;;87.38;49.42;;;;;;;;;;5032593;28;20021;-79
2022/10/18 00:35:34;;;;;;;90.50;49.45;;;;;;;;;;5032001;28;20165;-79
2022/10/18 00:38:00;;;;;;;76.88;46.78;;;;;;;;;;5033417;28;20029;-79
2022/10/18 00:40:26;;;;;;;78.13;46.78;;;;;;;;;;5031902;28;20164;-78
2022/10/18 00:42:52;;;;;;;79.93;48.70;;;;;;;;;;5031686;28;20030;-78
2022/10/18 00:45:18;;;;;;;81.38;48.67;;;;;;;;;;5038061;28;20025;-78
2022/10/18 00:47:52;;;;;;;87.78;50.10;;;;;;;;;;5037857;28;20100;-78
2022/10/18 00:50:18;;;;;;;74.10;46.65;;;;;;;;;;5020319;28;20014;-78
2022/10/18 00:52:53;;;;;;;81.40;47.28;;;;;;;;;;5037993;28;20036;-78
2022/10/18 00:55:19;;;;;;;79.63;49.08;;;;;;;;;;5020317;28;20021;-78
2022/10/18 00:57:46;;;;;;;79.95;49.17;;;;;;;;;;5020513;28;20510;-78
2022/10/18 01:00:12;;;;;;;85.63;48.42;;;;;;;;;;5038581;28;20032;-79
2022/10/18 01:02:41;;;;;;;85.68;50.58;;;;;;;;;;5039072;28;20029;-79
2022/10/18 01:05:07;;;;;;;72.93;45.45;;;;;;;;;;5039273;28;20561;-79
2022/10/18 01:07:36;;;;;;;83.75;49.00;;;;;;;;;;5039572;28;20028;-79
2022/10/18 01:10:23;;;;;;;79.13;48.42;;;;;;;;;;5020170;28;20056;-78
2022/10/18 01:12:52;;;;;;;83.72;48.63;;;;;;;;;;5037886;28;20147;-79
2022/10/18 01:15:18;;;;;;;89.93;50.10;;;;;;;;;;5019801;28;20049;-80
2022/10/18 01:17:49;;;;;;;90.55;49.78;;;;;;;;;;5037478;28;20122;-78
2022/10/18 01:20:15;;;;;;;;;;;;;;;;;;5038160;28;20025;-78
2022/10/18 01:22:47;;;;;;;84.13;48.00;;;;;;;;;;5019990;28;20321;-78
2022/10/18 01:25:32;;;;;;;91.45;52.45;;;;;;;;;;5037527;28;20022;-78
2022/10/18 01:28:07;;;;;;;92.82;52.45;;;;;;;;;;5038022;28;20488;-80
2022/10/18 01:30:47;;;;;;;92.20;50.22;;;;;;;;;;5021168;28;20456;-78
2022/10/18 01:33:25;;;;;;;79.70;47.10;;;;;;;;;;5019882;28;20380;-79
2022/10/18 01:35:58;;;;;;;91.32;49.95;;;;;;;;;;5019906;28;20090;-79
2022/10/18 01:38:27;;;;;;;84.97;50.88;;;;;;;;;;5019421;28;20030;-76
2022/10/18 01:40:54;;;;;;;89.43;50.88;;;;;;;;;;5041672;28;20177;-79
2022/10/18 01:43:22;;;;;;;95.95;53.78;;;;;;;;;;5025391;28;20028;-79
2022/10/18 01:45:49;;;;;;;83.57;48.97;;;;;;;;;;5027714;28;20029;-79
2022/10/18 01:48:15;;;;;;;93.03;49.22;;;;;;;;;;5028109;28;20021;-79
2022/10/18 01:50:41;;;;;;;89.97;51.08;;;;;;;;;;5030492;28;20036;-79
2022/10/18 01:53:20;;;;;;;82.50;48.60;;;;;;;;;;5054512;28;20084;-79
2022/10/18 01:55:50;;;;;;;90.38;52.03;;;;;;;;;;5052135;28;20439;-79
2022/10/18 01:58:16;;;;;;;97.28;51.28;;;;;;;;;;5049088;28;20025;-79
2022/10/18 02:00:43;;;;;;;98.35;53.05;;;;;;;;;;5037539;28;20037;-79
2022/10/18 02:03:22;;;;;;;92.03;50.33;;;;;;;;;;5047353;28;20041;-79
2022/10/18 02:05:48;;;;;;;93.47;49.50;;;;;;;;;;5037407;28;20038;-79
2022/10/18 02:08:34;;;;;;;91.15;49.95;;;;;;;;;;5034252;28;20022;-78
2022/10/18 02:11:08;;;;;;;85.90;47.75;;;;;;;;;;5034662;28;20026;-78
2022/10/18 02:13:53;;;;;;;97.25;50.35;;;;;;;;;;5016391;28;20021;-78
2022/10/18 02:16:21;;;;;;;95.35;52.33;;;;;;;;;;5034365;28;20076;-78
2022/10/18 02:19:06;;;;;;;97.70;53.10;;;;;;;;;;5033985;28;20025;-78
2022/10/18 02:21:33;;;;;;;100.28;53.28;;;;;;;;;;5034229;28;20029;-79
2022/10/18 02:24:00;;;;;;;87.40;51.72;;;;;;;;;;5034005;28;20079;-78
2022/10/18 02:26:26;;;;;;;88.63;48.05;;;;;;;;;;5034067;28;20026;-78
2022/10/18 02:28:52;;;;;;;86.88;48.80;;;;;;;;;;5033743;28;20018;-78
2022/10/18 02:31:26;;;;;;;87.10;47.97;;;;;;;;;;5033844;28;20524;-78
2022/10/18 02:33:52;;;;;;;98.35;54.13;;;;;;;;;;5034239;28;20022;-78
2022/10/18 02:36:19;;;;;;;107.47;54.03;;;;;;;;;;5033557;28;20048;-78
2022/10/18 02:38:47;;;;;;;104.88;55.30;;;;;;;;;;5033463;28;20506;-78
2022/10/18 02:41:21;;;;;;;87.32;49.53;;;;;;;;;;5015897;28;20017;-78
2022/10/18 02:43:47;;;;;;;110.25;56.20;;;;;;;;;;5033661;28;20021;-78
2022/10/18 02:46:13;;;;;;;105.22;53.47;;;;;;;;;;5033446;28;20040;-78
2022/10/18 02:48:39;;;;;;;104.35;54.47;;;;;;;;;;5033244;28;20029;-78
2022/10/18 02:51:05;;;;;;;104.38;53.28;;;;;;;;;;5033943;28;20017;-78
2022/10/18 02:53:31;;;;;;;104.22;54.33;;;;;;;;;;5033241;28;20022;-78
2022/10/18 02:55:57;;;;;;;100.18;52.30;;;;;;;;;;5015422;28;20557;-78
2022/10/18 02:58:23;;;;;;;96.60;52.97;;;;;;;;;;5014998;28;20052;-78
2022/10/18 03:00:49;;;;;;;88.15;47.50;;;;;;;;;;5015475;28;20034;-79
2022/10/18 03:03:15;;;;;;;95.85;51.33;;;;;;;;;;5032912;28;20040;-78
2022/10/18 03:05:41;;;;;;;96.65;54.22;;;;;;;;;;5015392;28;20030;-78
2022/10/18 03:08:07;;;;;;;89.45;49.63;;;;;;;;;;5031375;28;20514;-78
2022/10/18 03:10:33;;;;;;;96.32;50.92;;;;;;;;;;5082388;23;20049;-79
2022/10/18 03:12:59;;;;;;;102.65;52.38;;;;;;;;;;5066657;28;20020;-81
2022/10/18 03:15:25;;;;;;;87.00;50.00;;;;;;;;;;5073574;28;20032;-79
2022/10/18 03:17:51;;;;;;;95.57;52.33;;;;;;;;;;5072662;28;20028;-78
2022/10/18 03:20:18;;;;;;;101.63;54.70;;;;;;;;;;5047762;28;20159;-79
2022/10/18 03:22:44;;;;;;;109.00;54.92;;;;;;;;;;5027922;28;20036;-78
2022/10/18 03:25:10;;;;;;;99.28;53.15;;;;;;;;;;5039297;28;20120;-74
2022/10/18 03:27:36;;;;;;;102.43;51.78;;;;;;;;;;5035056;28;20025;-79
2022/10/18 03:30:04;;;;;;;102.43;54.10;;;;;;;;;;5053029;28;20035;-78
2022/10/18 03:32:30;;;;;;;107.00;55.42;;;;;;;;;;5025278;28;20037;-78
2022/10/18 03:34:56;;;;;;;112.10;55.22;;;;;;;;;;5042212;28;20021;-78
2022/10/18 03:37:22;;;;;;;99.43;52.47;;;;;;;;;;5024322;28;20032;-79
2022/10/18 03:39:48;;;;;;;96.03;50.88;;;;;;;;;;5052988;28;20474;-78
2022/10/18 03:42:14;;;;;;;104.13;52.08;;;;;;;;;;5036298;28;20025;-81
2022/10/18 03:44:40;;;;;;;103.90;52.33;;;;;;;;;;5043184;28;20083;-81
2022/10/18 03:47:06;;;;;;;96.53;51.40;;;;;;;;;;5037854;28;20501;-78
2022/10/18 03:49:32;;;;;;;102.03;54.67;;;;;;;;;;5036962;28;20028;-80
2022/10/18 03:51:58;;;;;;;91.63;51.58;;;;;;;;;;5041161;28;20554;-81
2022/10/18 03:54:24;;;;;;;99.03;54.47;;;;;;;;;;5042739;28;20033;-80
2022/10/18 03:56:50;;;;;;;98.35;56.13;;;;;;;;;;5040090;28;20049;-80
2022/10/18 03:59:16;;;;;;;93.35;51.35;;;;;;;;;;5053983;28;20174;-81
2022/10/18 04:01:42;;;;;;;104.35;54.50;;;;;;;;;;5039986;28;20031;-79
2022/10/18 04:04:08;;;;;;;92.00;50.83;;;;;;;;;;5053976;28;20032;-80
2022/10/18 04:06:34;;;;;;;108.40;55.97;;;;;;;;;;5035789;28;20025;-83
2022/10/18 04:09:00;;;;;;;94.70;52.08;;;;;;;;;;5044595;28;20025;-82
2022/10/18 04:11:26;;;;;;;88.57;51.22;;;;;;;;;;5047178;28;20028;-79
2022/10/18 04:13:52;;;;;;;88.93;50.00;;;;;;;;;;5023973;28;20222;-79
2022/10/18 04:16:18;;;;;;;84.63;47.63;;;;;;;;;;5055950;28;20414;-80
2022/10/18 04:18:44;;;;;;;75.25;45.72;;;;;;;;;;5034146;28;20041;-79
2022/10/18 04:21:10;;;;;;;84.63;48.53;;;;;;;;;;5056053;28;20025;-80
2022/10/18 04:23:36;;;;;;;74.65;46.25;;;;;;;;;;5044926;28;20029;-79
2022/10/18 04:26:02;;;;;;;72.03;44.28;;;;;;;;;;5042682;28;20029;-80
2022/10/18 04:28:28;;;;;;;73.50;46.10;;;;;;;;;;5035838;28;20494;-80
2022/10/18 04:30:54;;;;;;;65.88;43.90;;;;;;;;;;5038336;28;20116;-81
2022/10/18 04:33:20;;;;;;;64.70;40.85;;;;;;;;;;5048488;28;20080;-80
2022/10/18 04:35:46;;;;;;;67.38;42.72;;;;;;;;;;5047366;28;20078;-80
2022/10/18 04:38:13;;;;;;;60.58;40.42;;;;;;;;;;5039617;28;20026;-80
2022/10/18 04:40:40;;;;;;;69.72;42.45;;;;;;;;;;5026288;28;20025;-78
2022/10/18 04:43:06;;;;;;;63.83;40.72;;;;;;;;;;5050089;28;20096;-82
2022/10/18 04:45:31;;;;;;;60.10;40.15;;;;;;;;;;5047003;28;20123;-79
2022/10/18 04:47:58;;;;;;;60.20;40.65;;;;;;;;;;5033992;28;20394;-79
2022/10/18 04:50:23;;;;;;;58.30;40.63;;;;;;;;;;5050198;28;20032;-79
2022/10/18 04:52:50;;;;;;;57.65;37.92;;;;;;;;;;5040869;28;20073;-80
2022/10/18 04:55:16;;;;;;;61.85;39.90;;;;;;;;;;5052005;28;20025;-80
2022/10/18 04:57:42;;;;;;;65.03;40.63;;;;;;;;;;5037051;28;20029;-79
2022/10/18 05:00:08;;;;;;;61.65;39.40;;;;;;;;;;5036333;28;20120;-80
2022/10/18 05:02:36;;;;;;;56.95;38.53;;;;;;;;;;5024793;28;20079;-80
2022/10/18 05:05:03;;;;;;;57.60;37.83;;;;;;;;;;5044017;28;20028;-80
2022/10/18 05:07:29;;;;;;;55.85;36.63;;;;;;;;;;5035431;28;20014;-80
2022/10/18 05:09:55;;;;;;;51.50;34.67;;;;;;;;;;5069747;23;20032;-79
2022/10/18 05:12:21;;;;;;;55.92;34.95;;;;;;;;;;5045609;28;20045;-79
2022/10/18 05:14:47;;;;;;;57.63;37.97;;;;;;;;;;5032290;28;20044;-79
2022/10/18 05:17:13;;;;;;;61.97;39.33;;;;;;;;;;5038211;28;20056;-79
2022/10/18 05:19:39;;;;;;;61.58;38.92;;;;;;;;;;5025313;28;20056;-79
2022/10/18 05:22:06;;;;;;;61.25;39.95;;;;;;;;;;5036575;28;20022;-81
2022/10/18 05:24:32;;;;;;;64.10;38.95;;;;;;;;;;5037192;28;20171;-79
2022/10/18 05:26:58;;;;;;;57.63;38.75;;;;;;;;;;5033290;28;20045;-78
2022/10/18 05:32:15;;;;;;;62.40;38.45;;;;;;;;;;5037788;28;20049;-80
2022/10/18 05:34:41;;;;;;;56.97;37.72;;;;;;;;;;5040380;28;20017;-81
2022/10/18 05:37:07;;;;;;;61.50;40.42;;;;;;;;;;5018852;28;20105;-79
2022/10/18 05:39:33;;;;;;;60.50;39.20;;;;;;;;;;5034240;28;20050;-82
2022/10/18 05:41:59;;;;;;;67.90;39.72;;;;;;;;;;5029795;28;20373;-81
2022/10/18 05:44:25;;;;;;;60.05;39.65;;;;;;;;;;5028528;28;20440;-81
2022/10/18 05:46:51;;;;;;;60.00;39.08;;;;;;;;;;5013050;28;20044;-81
2022/10/18 05:49:17;;;;;;;73.22;41.90;;;;;;;;;;5032332;28;20471;-81
2022/10/18 05:51:43;;;;;;;64.57;41.38;;;;;;;;;;5020389;28;20018;-81
2022/10/18 05:54:11;;;;;;;65.90;40.28;;;;;;;;;;5020512;28;20017;-81
2022/10/18 05:56:37;;;;;;;60.25;39.17;;;;;;;;;;5039344;28;20018;-80
2022/10/18 05:59:10;;;;;;;54.80;37.72;;;;;;;;;;5038881;28;20457;-82
2022/10/18 06:01:37;;;;;;;62.60;41.00;;;;;;;;;;5022920;28;20033;-82
2022/10/18 06:04:04;;;;;;;54.28;39.67;;;;;;;;;;5023831;28;20423;-81
2022/10/18 06:06:30;;;;;;;62.65;40.17;;;;;;;;;;5039738;28;20025;-80
2022/10/18 06:09:02;;;;;;;56.47;37.25;;;;;;;;;;5021441;28;20068;-83
2022/10/18 06:11:28;;;;;;;60.00;38.97;;;;;;;;;;5020252;28;20022;-81
2022/10/18 06:13:56;;;;;;;58.17;36.97;;;;;;;;;;5031041;28;20106;-82
2022/10/18 06:16:26;;;;;;;54.85;37.70;;;;;;;;;;5014074;28;20025;-82
2022/10/18 06:18:53;;;;;;;51.63;34.70;;;;;;;;;;5014323;28;20038;-83
2022/10/18 06:21:24;;;;;;;52.20;37.00;;;;;;;;;;5015592;28;20026;-83
2022/10/18 06:23:56;;;;;;;53.55;35.22;;;;;;;;;;5010430;28;20021;-81
2022/10/18 06:26:34;;;;;;;51.53;35.85;;;;;;;;;;5031432;28;20029;-80
2022/10/18 06:29:00;;;;;;;54.65;35.13;;;;;;;;;;5035834;28;20430;-83
2022/10/18 06:31:26;;;;;;;50.53;33.08;;;;;;;;;;5009846;28;20076;-83
2022/10/18 06:33:58;;;;;;;44.67;31.45;;;;;;;;;;5037669;28;20076;-83
2022/10/18 06:36:24;;;;;;;43.20;30.27;;;;;;;;;;5019699;28;20018;-79
2022/10/18 06:41:24;;;;;;;40.20;28.55;;;;;;;;;;5366982;22;20053;-81
2022/10/18 06:43:56;;;;;;;38.75;26.65;;;;;;;;;;5063590;28;20092;-81
2022/10/18 06:46:22;;;;;;;;;;;;;;;;;;5083507;28;20020;-84
2022/10/18 06:48:48;;;;;;;43.92;27.17;;;;;;;;;;5091974;28;20105;-84
2022/10/18 06:51:14;;;;;;;37.28;26.20;;;;;;;;;;5076937;28;20029;-86
2022/10/18 06:53:40;;;;;;;40.33;26.38;;;;;;;;;;5070414;28;20115;-84
2022/10/18 06:56:08;;;;;;;41.33;27.75;;;;;;;;;;5081544;28;20017;-85
2022/10/18 06:58:34;;;;;;;38.45;25.23;;;;;;;;;;5068142;28;20020;-83
2022/10/18 07:01:14;;;;;;;41.40;26.60;;;;;;;;;;5077056;28;20048;-83
2022/10/18 07:03:40;;;;;;;40.90;25.80;;;;;;;;;;5053843;28;20049;-83
2022/10/18 07:06:07;;;;;;;33.55;22.52;;;;;;;;;;5067744;28;20044;-79
2022/10/18 07:08:33;;;;;;;37.85;24.60;;;;;;;;;;5027790;28;20021;-83
2022/10/18 07:11:03;;;;;;;38.63;25.83;;;;;;;;;;5045605;28;20028;-84
2022/10/18 07:13:36;;;;;;;35.08;22.88;;;;;;;;;;5043231;28;20021;-82
2022/10/18 07:16:05;;;;;;;38.85;24.38;;;;;;;;;;5052884;28;20066;-84
2022/10/18 07:18:40;;;;;;;30.58;20.30;;;;;;;;;;5078825;28;20048;-82
2022/10/18 07:21:09;;;;;;;31.33;20.92;;;;;;;;;;5079616;28;20028;-81
2022/10/18 07:23:41;;;;;;;31.30;20.13;;;;;;;;;;5073791;28;20047;-82
2022/10/18 07:26:17;;;;;;;29.38;19.52;;;;;;;;;;5071303;28;20028;-79
2022/10/18 07:28:44;;;;;;;28.83;18.50;;;;;;;;;;5073713;28;20021;-82
2022/10/18 07:31:10;;;;;;;27.10;18.65;;;;;;;;;;5038988;28;20116;-82
2022/10/18 07:33:37;;;;;;;31.35;19.92;;;;;;;;;;5069425;28;20048;-82
2022/10/18 07:36:07;;;;;;;30.55;20.45;;;;;;;;;;5039511;28;20017;-83
2022/10/18 07:38:34;;;;;;;30.55;21.70;;;;;;;;;;5053268;28;20487;-82
2022/10/18 07:41:01;;;;;;;36.85;23.75;;;;;;;;;;5068407;28;20500;-80
2022/10/18 07:43:29;;;;;;;33.60;23.92;;;;;;;;;;5077089;28;20028;-81
2022/10/18 07:45:57;;;;;;;35.60;25.60;;;;;;;;;;5064208;28;20025;-81
2022/10/18 07:48:23;;;;;;;37.30;24.25;;;;;;;;;;5047620;28;20039;-85
2022/10/18 07:50:49;;;;;;;35.28;24.83;;;;;;;;;;5078789;28;20040;-79
2022/10/18 07:53:15;;;;;;;32.92;23.83;;;;;;;;;;5075150;28;20777;-85
2022/10/18 07:55:42;;;;;;;36.78;23.38;;;;;;;;;;5084431;28;20088;-84
2022/10/18 07:58:08;;;;;;;31.48;23.85;;;;;;;;;;5081036;28;20043;-78
2022/10/18 08:00:34;;;;;;;34.00;23.90;;;;;;;;;;5054472;28;20025;-80
2022/10/18 08:03:00;;;;;;;38.50;24.98;;;;;;;;;;5058489;28;20026;-82
2022/10/18 08:05:26;;;;;;;37.33;23.60;;;;;;;;;;5064283;28;20040;-82
2022/10/18 08:07:53;;;;;;;29.85;24.17;;;;;;;;;;5066507;28;20031;-81
2022/10/18 08:10:20;;;;;;;34.78;23.77;;;;;;;;;;5070631;28;20017;-82
2022/10/18 08:12:46;;;;;;;32.17;23.13;;;;;;;;;;5077060;28;20013;-83
2022/10/18 08:15:12;;;;;;;33.35;24.20;;;;;;;;;;5072264;28;20009;-85
2022/10/18 08:17:38;;;;;;;30.05;22.45;;;;;;;;;;5068815;28;20013;-85
2022/10/18 08:20:08;;;;;;;32.28;25.08;;;;;;;;;;5064358;28;20035;-84
2022/10/18 08:22:34;;;;;;;35.47;25.05;;;;;;;;;;5078522;28;20063;-85
2022/10/18 08:25:00;;;;;;;31.13;25.33;;;;;;;;;;5074035;28;20044;-85
2022/10/18 08:27:26;;;;;;;32.28;25.13;;;;;;;;;;5074450;28;20130;-81
2022/10/18 08:29:58;;;;;;;34.75;23.80;;;;;;;;;;5068743;28;20029;-83
2022/10/18 08:32:27;;;;;;;35.40;23.65;;;;;;;;;;5054902;28;20029;-81
2022/10/18 08:34:53;;;;;;;30.60;23.40;;;;;;;;;;5060310;28;20486;-84
2022/10/18 08:37:22;;;;;;;32.63;22.10;;;;;;;;;;5047733;28;20436;-84
2022/10/18 08:39:48;;;;;;;34.75;23.73;;;;;;;;;;5066999;28;20100;-82
2022/10/18 08:42:37;;;;;;;38.30;24.85;;;;;;;;;;5059280;28;20036;-83
2022/10/18 08:45:04;;;;;;;34.97;24.13;;;;;;;;;;5066305;28;20025;-80
2022/10/18 08:47:35;;;;;;;32.08;23.40;;;;;;;;;;5061751;28;20032;-82
2022/10/18 08:50:07;;;;;;;34.10;22.92;;;;;;;;;;5052499;28;20097;-83
2022/10/18 08:52:50;;;;;;;35.63;23.67;;;;;;;;;;5081112;28;20025;-82
2022/10/18 08:55:37;;;;;;;35.78;24.23;;;;;;;;;;5062060;28;20060;-82
2022/10/18 08:58:16;;;;;;;31.40;23.08;;;;;;;;;;5067294;28;20035;-82
2022/10/18 09:01:08;;;;;;;32.20;22.35;;;;;;;;;;5065157;28;20028;-83
2022/10/18 09:04:02;;;;;;;32.47;22.88;;;;;;;;;;5056285;28;20033;-81
2022/10/18 09:07:06;;;;;;;;;;;;;;;;;;;;;
2022/10/18 09:09:39;;;;;;;34.60;24.33;;;;;;;;;;5018583;28;20508;-83
2022/10/18 09:12:22;;;;;;;34.33;23.63;;;;;;;;;;5011737;28;20384;-81
2022/10/18 09:15:00;;;;;;;30.75;23.48;;;;;;;;;;5051160;28;20025;-82
2022/10/18 09:17:47;;;;;;;34.70;25.05;;;;;;;;;;5057565;28;20021;-82
2022/10/18 09:20:13;;;;;;;35.08;24.75;;;;;;;;;;5068286;28;20024;-82
2022/10/18 09:22:53;;;;;;;34.03;25.05;;;;;;;;;;5051534;28;20051;-82
2022/10/18 09:25:37;;;;;;;34.33;25.25;;;;;;;;;;5061498;28;20021;-83
2022/10/18 09:28:23;;;;;;;38.25;25.13;;;;;;;;;;5042120;28;20025;-82
2022/10/18 09:31:11;;;;;;;;;;;;;;;;;;;;;
2022/10/18 09:33:38;;;;;;;34.75;24.95;;;;;;;;;;5065213;28;20048;-84
2022/10/18 09:36:24;;;;;;;36.40;24.80;;;;;;;;;;5057556;28;20025;-82
2022/10/18 09:38:53;;;;;;;36.97;25.45;;;;;;;;;;5056724;28;20025;-83
2022/10/18 09:41:32;;;;;;;30.48;22.77;;;;;;;;;;5076217;28;20032;-80
2022/10/18 09:44:10;;;;;;;32.90;23.27;;;;;;;;;;5070319;28;20382;-83
2022/10/18 09:46:38;;;;;;;38.53;24.88;;;;;;;;;;5065283;28;20029;-82
2022/10/18 09:49:13;;;;;;;31.05;23.92;;;;;;;;;;5061948;28;20024;-82
2022/10/18 09:51:41;;;;;;;40.22;25.17;;;;;;;;;;5059995;28;20028;-82
2022/10/18 09:54:13;;;;;;;38.88;26.15;;;;;;;;;;5072339;28;20090;-80
2022/10/18 09:56:44;;;;;;;37.47;23.38;;;;;;;;;;5048475;28;20349;-81
2022/10/18 09:59:12;;;;;;;;;;;;;;;;;;5063094;28;20021;-82
2022/10/18 10:01:38;;;;;;;36.47;25.73;;;;;;;;;;5076491;28;19905;-83
2022/10/18 10:04:07;;;;;;;28.92;22.40;;;;;;;;;;5042931;28;20024;-82
2022/10/18 10:06:33;;;;;;;36.28;24.75;;;;;;;;;;5062398;28;20041;-82
2022/10/18 10:09:15;;;;;;;36.33;25.58;;;;;;;;;;5053469;28;20033;-82
2022/10/18 10:11:50;;;;;;;32.00;24.02;;;;;;;;;;5073917;28;20025;-83
2022/10/18 10:14:16;;;;;;;33.33;24.25;;;;;;;;;;5037121;28;20036;-80
2022/10/18 10:16:52;;;;;;;35.38;23.25;;;;;;;;;;5073331;28;20021;-84
2022/10/18 10:19:20;;;;;;;36.53;23.88;;;;;;;;;;5050299;28;20028;-82
2022/10/18 10:21:47;;;;;;;33.22;23.17;;;;;;;;;;5047701;28;20012;-83
2022/10/18 10:24:20;;;;;;;33.78;22.58;;;;;;;;;;5044578;28;20483;-84
2022/10/18 10:26:46;;;;;;;29.83;22.92;;;;;;;;;;5042233;28;20080;-82
2022/10/18 10:29:31;;;;;;;29.42;22.98;;;;;;;;;;5042222;28;20021;-82
2022/10/18 10:32:03;;;;;;;33.72;23.67;;;;;;;;;;5066271;28;20048;-84
2022/10/18 10:34:30;;;;;;;37.53;24.02;;;;;;;;;;5080224;28;20020;-84
2022/10/18 10:36:56;;;;;;;31.15;23.30;;;;;;;;;;5079807;28;20553;-84
2022/10/18 10:39:23;;;;;;;32.22;24.13;;;;;;;;;;5073769;28;20025;-84
2022/10/18 10:41:53;;;;;;;32.03;23.55;;;;;;;;;;5074121;28;20052;-82
2022/10/18 10:44:23;;;;;;;32.47;23.10;;;;;;;;;;5071411;28;20510;-82
2022/10/18 10:46:50;;;;;;;33.90;23.08;;;;;;;;;;5079647;28;20017;-83
2022/10/18 10:49:23;;;;;;;31.27;23.08;;;;;;;;;;5079452;28;20054;-84
2022/10/18 10:51:56;;;;;;;36.88;25.40;;;;;;;;;;5076113;28;20052;-81
2022/10/18 10:54:24;;;;;;;33.65;24.83;;;;;;;;;;5061282;28;20021;-81
2022/10/18 10:56:53;;;;;;;36.75;26.17;;;;;;;;;;5063199;28;20065;-82
2022/10/18 10:59:20;;;;;;;35.15;26.27;;;;;;;;;;5070584;28;20021;-83
2022/10/18 11:01:48;;;;;;;33.05;26.20;;;;;;;;;;5062501;28;20027;-83
2022/10/18 11:04:27;;;;;;;35.70;25.77;;;;;;;;;;5068756;28;20467;-83
2022/10/18 11:06:56;;;;;;;41.70;28.42;;;;;;;;;;5079709;28;20437;-83
2022/10/18 11:09:26;;;;;;;39.20;29.58;;;;;;;;;;5080604;28;20021;-83
2022/10/18 11:11:56;;;;;;;36.50;27.90;;;;;;;;;;5072989;28;20409;-83
2022/10/18 11:14:25;;;;;;;40.03;30.27;;;;;;;;;;5070156;28;20534;-83
2022/10/18 11:16:58;;;;;;;50.58;32.70;;;;;;;;;;5064039;28;20035;-83
2022/10/18 11:19:43;;;;;;;40.92;31.25;;;;;;;;;;5059762;28;20028;-83
2022/10/18 11:22:12;;;;;;;47.83;29.95;;;;;;;;;;5044802;28;20032;-86
2022/10/18 11:24:38;;;;;;;38.55;27.75;;;;;;;;;;5039387;28;20379;-83
2022/10/18 11:27:04;;;;;;;41.13;29.55;;;;;;;;;;5053398;28;20019;-81
2022/10/18 11:29:49;;;;;;;38.33;27.83;;;;;;;;;;5041039;28;20111;-83
2022/10/18 11:32:24;;;;;;;39.65;26.95;;;;;;;;;;5054263;28;20031;-84
2022/10/18 11:34:59;;;;;;;39.08;26.73;;;;;;;;;;5086206;28;20088;-88
2022/10/18 11:37:43;;;;;;;35.00;23.13;;;;;;;;;;5084776;28;20021;-81
2022/10/18 11:40:21;;;;;;;32.80;24.30;;;;;;;;;;5077790;28;20021;-88
2022/10/18 11:43:00;;;;;;;30.00;20.92;;;;;;;;;;5060699;28;20098;-85
2022/10/18 11:45:44;;;;;;;30.00;21.35;;;;;;;;;;5035013;28;20056;-84
2022/10/18 11:48:31;;;;;;;25.20;19.25;;;;;;;;;;5055303;28;20283;-85
2022/10/18 11:51:05;;;;;;;20.27;17.08;;;;;;;;;;5049258;28;20021;-83
2022/10/18 11:53:49;;;;;;;20.40;16.48;;;;;;;;;;5059346;28;20025;-84
2022/10/18 11:56:22;;;;;;;22.23;15.95;;;;;;;;;;5055821;28;20035;-85
2022/10/18 11:58:51;;;;;;;20.83;15.57;;;;;;;;;;5059846;28;20042;-83
2022/10/18 12:01:23;;;;;;;19.38;15.45;;;;;;;;;;5066215;28;20033;-84
2022/10/18 12:03:56;;;;;;;20.15;13.93;;;;;;;;;;5062356;28;20422;-83
2022/10/18 12:06:31;;;;;;;22.02;15.05;;;;;;;;;;5077888;28;20033;-85
2022/10/18 12:08:59;;;;;;;18.10;13.55;;;;;;;;;;5054409;28;20107;-83
2022/10/18 12:11:33;;;;;;;20.60;13.73;;;;;;;;;;5056705;28;20025;-90
2022/10/18 12:14:04;;;;;;;18.50;12.32;;;;;;;;;;5068944;28;20016;-88
2022/10/18 12:16:40;;;;;;;18.95;12.63;;;;;;;;;;5078884;28;20033;-87
2022/10/18 12:19:23;;;;;;;22.35;12.27;;;;;;;;;;5059999;28;20027;-87
2022/10/18 12:21:50;;;;;;;16.23;11.63;;;;;;;;;;5069672;28;20071;-79
2022/10/18 12:24:22;;;;;;;13.65;10.02;;;;;;;;;;5058633;28;20041;-83
2022/10/18 12:26:48;;;;;;;;;;;;;;;;;;5075544;28;20191;-84
2022/10/18 12:29:25;;;;;;;10.75;7.68;;;;;;;;;;5053585;28;19904;-85
2022/10/18 12:32:01;;;;;;;10.38;7.65;;;;;;;;;;5043342;28;20024;-84
2022/10/18 12:34:30;;;;;;;9.60;6.82;;;;;;;;;;5055305;28;20028;-83
2022/10/18 12:37:08;;;;;;;9.60;6.65;;;;;;;;;;5050586;28;20017;-84
2022/10/18 12:39:42;;;;;;;11.05;6.30;;;;;;;;;;5072558;28;20020;-86
2022/10/18 12:42:21;;;;;;;12.30;6.45;;;;;;;;;;5032879;28;20029;-85
2022/10/18 12:44:47;;;;;;;9.43;5.80;;;;;;;;;;5066156;28;20037;-84
2022/10/18 12:47:23;;;;;;;7.93;5.72;;;;;;;;;;5074493;28;20017;-83
2022/10/18 12:49:57;;;;;;;7.35;5.63;;;;;;;;;;5046441;28;20479;-84
2022/10/18 12:52:24;;;;;;;13.70;6.60;;;;;;;;;;5068946;28;20016;-84
2022/10/18 12:55:09;;;;;;;9.43;5.75;;;;;;;;;;5062876;28;20029;-84
2022/10/18 12:57:53;;;;;;;9.27;5.53;;;;;;;;;;5049187;28;20049;-88
2022/10/18 13:00:46;;;;;;;6.97;5.25;;;;;;;;;;5087545;28;20054;-85
2022/10/18 13:03:18;;;;;;;6.78;4.50;;;;;;;;;;5058166;28;20048;-87
2022/10/18 13:05:47;;;;;;;8.38;4.32;;;;;;;;;;5076308;28;20025;-88
2022/10/18 13:08:36;;;;;;;6.50;3.67;;;;;;;;;;5075221;28;20033;-86
2022/10/18 13:11:09;;;;;;;5.95;3.65;;;;;;;;;;5074789;28;20030;-83
2022/10/18 13:13:53;;;;;;;5.63;3.53;;;;;;;;;;5060088;28;20029;-83
2022/10/18 13:16:22;;;;;;;4.03;3.60;;;;;;;;;;5059983;28;20040;-83
2022/10/18 13:18:57;;;;;;;5.47;3.30;;;;;;;;;;5084361;28;20036;-80
2022/10/18 13:21:33;;;;;;;3.97;2.88;;;;;;;;;;5072489;28;20020;-83
2022/10/18 13:24:08;;;;;;;3.58;3.10;;;;;;;;;;5061577;28;20050;-82
2022/10/18 13:26:57;;;;;;;3.72;3.33;;;;;;;;;;5072614;28;20517;-82
2022/10/18 13:29:42;;;;;;;8.50;3.40;;;;;;;;;;5052717;28;20025;-83
2022/10/18 13:32:20;;;;;;;4.32;3.38;;;;;;;;;;5037758;28;20354;-83
2022/10/18 13:34:49;;;;;;;4.22;3.10;;;;;;;;;;5068244;28;20017;-82
2022/10/18 13:37:15;;;;;;;3.85;3.03;;;;;;;;;;5051342;28;20024;-83
2022/10/18 13:39:41;;;;;;;3.83;2.83;;;;;;;;;;5063659;28;20028;-82
2022/10/18 13:42:39;;;;;;;4.22;3.00;;;;;;;;;;5077296;28;20058;-83
2022/10/18 13:45:27;;;;;;;4.05;3.10;;;;;;;;;;5051493;28;20150;-82
2022/10/18 13:47:53;;;;;;;3.92;2.95;;;;;;;;;;5065945;28;20021;-84
2022/10/18 13:50:35;;;;;;;3.50;2.88;;;;;;;;;;5073574;28;20032;-86
2022/10/18 13:53:24;;;;;;;4.05;3.45;;;;;;;;;;5062230;28;20045;-84
2022/10/18 13:55:50;;;;;;;5.15;3.65;;;;;;;;;;5059050;28;20029;-83
2022/10/18 13:58:43;;;;;;;7.97;4.38;;;;;;;;;;5094916;28;20117;-85
2022/10/18 14:01:12;;;;;;;5.57;3.75;;;;;;;;;;5062268;28;20024;-86
2022/10/18 14:04:06;;;;;;;9.07;5.38;;;;;;;;;;5062231;28;20077;-88
2022/10/18 14:06:40;;;;;;;7.88;5.35;;;;;;;;;;5074090;28;20131;-84
2022/10/18 14:09:12;;;;;;;6.90;5.20;;;;;;;;;;5065369;28;20013;-84
2022/10/18 14:11:47;;;;;;;7.57;5.30;;;;;;;;;;5059432;28;20017;-84
2022/10/18 14:14:19;;;;;;;8.55;5.90;;;;;;;;;;5060005;28;20033;-83
2022/10/18 14:23:33;;;;;;;10.90;5.72;;;;;;;;;;5081345;28;20040;-83
2022/10/18 14:26:38;;;;;;;;;;;;;;;;;;;;;
2022/10/18 14:29:24;;;;;;;7.47;5.60;;;;;;;;;;5060828;28;20129;-84
2022/10/18 14:32:20;;;;;;;5.03;4.53;;;;;;;;;;5045146;28;20035;-84
2022/10/18 14:35:21;;;;;;;;;;;;;;;;;;;;;
2022/10/18 14:38:26;;;;;;;;;;;;;;;;;;;;;
2022/10/18 14:49:01;;;;;;;5.68;4.68;;;;;;;;;;5042171;28;20072;-84
2022/10/18 14:55:06;;;;;;;5.82;4.50;;;;;;;;;;5018901;28;20081;-80
2022/10/18 15:06:33;;;;;;;4.13;3.55;;;;;;;;;;5280571;23;20118;-83
2022/10/18 15:18:37;;;;;;;3.88;3.47;;;;;;;;;;5002104;28;20045;-83
2022/10/18 15:21:34;;;;;;;;;;;;;;;;;;;;;
2022/10/18 15:24:41;;;;;;;;;;;;;;;;;;;;;
2022/10/18 15:30:36;;;;;;;2.92;2.63;;;;;;;;;;4933551;29;20098;-88
2022/10/18 15:33:33;;;;;;;3.30;3.00;;;;;;;;;;4945115;29;20063;-90
2022/10/18 15:39:42;;;;;;;4.55;3.13;;;;;;;;;;5044773;28;20067;-87
2022/10/18 15:45:45;;;;;;;;;;;;;;;;;;;;;